Wheaton, Missouri
Current Conditions -  °F | °C
As of 8:55 PM on Wednesday 26 Nov 2014 (Local Time) from KHFJ Reporting Station
Scattered Clouds Scattered Clouds  
Wind Chill: 23°   Ceiling: Unl
Heat Index: 34°   Visibility: 10mi
Dew Point: 27°   Wind: 18mph
Humidity: 75%   Direction: 320°NW
Pressure: 30.26"   Gusts: 24mph
Location:  36.76°N, 94.06°W
Report Text: KHFJ 270255Z AUTO 32016G21KT 10SM SCT037 01/M03 A3026 RMK AO2
Loading
Personal Weather Stations






























Interactive Weather Map New forecast layout! Learn more

10-Day Weather Forecast

Advertisements
Track Severe Weather on mobile